Time;durP1;ratioP1;P1;durP2;ratioP2;P2;SDS_P1;SDS_P2;PMS_P1;PMS_P2;Temp;Humidity;BMP_temperature;BMP_pressure;BME280_temperature;BME280_humidity;BME280_pressure;Samples;Min_cycle;Max_cycle;Signal;HPM_P1;HPM_P2
2022/01/30 00:00:15;;;;;;;30.88;5.90;;;7.40;99.90;;;;;;6156298;23;20382;-74
2022/01/30 00:02:41;;;;;;;21.58;4.93;;;7.30;99.90;;;;;;6154811;23;20077;-73
2022/01/30 00:05:07;;;;;;;26.80;4.72;;;7.30;99.90;;;;;;6155457;23;20025;-73
2022/01/30 00:07:34;;;;;;;22.85;5.25;;;7.30;99.90;;;;;;6154652;23;20018;-73
2022/01/30 00:10:00;;;;;;;31.58;5.25;;;7.30;99.90;;;;;;6159298;23;20395;-74
2022/01/30 00:13:01;;;;;;;33.95;5.50;;;7.20;99.90;;;;;;6158754;23;20049;-73
2022/01/30 00:15:18;;;;;;;25.33;5.32;;;7.20;99.90;;;;;;6181340;23;20020;-73
2022/01/30 00:17:54;;;;;;;33.40;5.90;;;7.10;99.90;;;;;;6185439;23;20021;-73
2022/01/30 00:20:23;;;;;;;31.17;4.93;;;7.10;99.90;;;;;;6186444;23;20020;-73
2022/01/30 00:22:59;;;;;;;19.67;4.25;;;7.10;99.90;;;;;;6159508;23;20353;-74
2022/01/30 00:25:34;;;;;;;23.73;4.93;;;7.10;99.90;;;;;;6185083;23;20441;-72
2022/01/30 00:28:06;;;;;;;28.08;4.90;;;7.00;99.90;;;;;;6159663;23;20401;-73
2022/01/30 00:30:35;;;;;;;16.67;3.85;;;7.00;99.90;;;;;;6185866;23;20017;-73
2022/01/30 00:33:02;;;;;;;21.50;5.25;;;7.10;99.90;;;;;;6158300;23;20017;-74
2022/01/30 00:35:28;;;;;;;29.35;5.72;;;7.10;99.90;;;;;;6159472;23;20058;-73
2022/01/30 00:37:54;;;;;;;24.17;5.07;;;6.90;99.90;;;;;;6185949;23;20092;-74
2022/01/30 00:40:20;;;;;;;32.55;6.85;;;6.80;99.90;;;;;;6158593;23;20017;-72
2022/01/30 00:42:46;;;;;;;23.58;4.80;;;6.70;99.90;;;;;;6186109;23;20087;-73
2022/01/30 00:45:12;;;;;;;26.08;4.60;;;6.50;99.90;;;;;;6159460;23;20028;-74
2022/01/30 00:47:37;;;;;;;19.60;3.60;;;6.30;99.90;;;;;;6184952;23;20020;-72
2022/01/30 00:50:04;;;;;;;17.02;5.00;;;6.20;99.90;;;;;;6186135;23;20071;-73
2022/01/30 00:52:30;;;;;;;25.35;3.47;;;6.10;99.90;;;;;;6186009;23;20072;-73
2022/01/30 00:54:55;;;;;;;18.63;4.38;;;6.10;99.90;;;;;;6185391;23;20009;-74
2022/01/30 00:57:21;;;;;;;16.45;3.08;;;6.00;99.90;;;;;;6159344;23;20028;-72
2022/01/30 00:59:49;;;;;;;30.60;4.88;;;6.00;99.90;;;;;;6186093;23;20023;-73
2022/01/30 01:02:15;;;;;;;22.80;3.38;;;5.90;99.90;;;;;;6158764;23;20021;-73
2022/01/30 01:04:41;;;;;;;26.98;4.82;;;5.80;99.90;;;;;;6186110;23;20036;-74
2022/01/30 01:07:12;;;;;;;28.85;4.65;;;5.80;99.90;;;;;;6184842;23;20438;-73
2022/01/30 01:09:40;;;;;;;28.80;4.20;;;5.80;99.90;;;;;;6185861;23;20067;-73
2022/01/30 01:25:36;;;;;;;28.10;4.50;;;5.90;99.90;;;;;;6187922;23;20025;-73
2022/01/30 01:28:02;;;;;;;27.75;4.75;;;5.80;99.90;;;;;;6186834;23;20020;-73
2022/01/30 01:30:27;;;;;;;31.10;7.25;;;5.80;99.90;;;;;;6187484;23;20021;-73
2022/01/30 01:32:53;;;;;;;27.92;5.20;;;5.80;99.90;;;;;;6187821;23;20024;-73
2022/01/30 01:35:20;;;;;;;32.75;5.35;;;5.80;99.90;;;;;;6186842;23;20017;-73
2022/01/30 01:37:52;;;;;;;29.48;5.72;;;5.80;99.90;;;;;;6187479;23;20084;-71
2022/01/30 01:40:18;;;;;;;25.13;4.60;;;5.90;99.90;;;;;;6187416;23;20017;-72
2022/01/30 01:42:44;;;;;;;24.92;4.88;;;6.00;99.90;;;;;;6186764;23;20016;-73
2022/01/30 01:45:10;;;;;;;24.80;5.35;;;6.20;99.90;;;;;;6187697;23;20080;-73
2022/01/30 01:47:36;;;;;;;28.38;4.80;;;6.10;99.90;;;;;;6187720;23;20028;-73
2022/01/30 01:50:02;;;;;;;23.95;3.92;;;6.10;99.90;;;;;;6186457;23;20020;-73
2022/01/30 01:52:29;;;;;;;30.33;5.40;;;6.10;99.90;;;;;;6160769;23;20442;-73
2022/01/30 01:54:59;;;;;;;28.55;5.18;;;6.20;99.90;;;;;;6160939;23;20021;-73
2022/01/30 01:57:27;;;;;;;34.15;4.68;;;6.20;99.90;;;;;;6159981;23;20025;-73
2022/01/30 01:59:53;;;;;;;27.80;4.75;;;6.20;99.90;;;;;;6160878;23;20056;-74
2022/01/30 02:02:21;;;;;;;38.90;6.38;;;6.10;99.90;;;;;;6160858;23;20079;-73
2022/01/30 02:04:47;;;;;;;31.35;4.80;;;6.10;99.90;;;;;;6160067;23;20021;-73
2022/01/30 02:10:00;;;;;;;37.47;5.97;;;6.20;99.90;;;;;;6160639;23;20036;-73
2022/01/30 02:12:40;;;;;;;21.42;4.55;;;6.30;99.90;;;;;;6160041;23;20147;-73
2022/01/30 02:26:01;;;;;;;28.05;5.30;;;6.40;99.90;;;;;;6186251;23;20025;-74
2022/01/30 02:28:29;;;;;;;32.85;5.68;;;6.40;99.90;;;;;;6187329;23;20017;-73
2022/01/30 02:31:02;;;;;;;27.48;5.35;;;6.50;99.90;;;;;;6187135;23;20013;-73
2022/01/30 02:33:28;;;;;;;27.35;5.35;;;6.70;99.90;;;;;;6186398;23;20032;-72
2022/01/30 02:35:54;;;;;;;29.48;6.45;;;6.50;99.90;;;;;;6160161;23;20017;-73
2022/01/30 02:38:22;;;;;;;34.67;6.32;;;6.50;99.90;;;;;;6159514;23;20381;-73
2022/01/30 02:40:50;;;;;;;27.85;6.57;;;6.60;99.90;;;;;;6160534;23;20017;-73
2022/01/30 02:43:20;;;;;;;28.92;4.72;;;6.50;99.90;;;;;;6187349;23;20020;-74
2022/01/30 02:45:58;;;;;;;33.53;6.07;;;6.50;99.90;;;;;;6159497;23;20017;-73
2022/01/30 02:48:32;;;;;;;29.20;6.03;;;6.50;99.90;;;;;;6187029;23;20028;-73
2022/01/30 02:51:09;;;;;;;34.65;5.82;;;6.50;99.90;;;;;;6187034;23;20039;-73
2022/01/30 02:53:40;;;;;;;25.42;5.63;;;6.50;99.90;;;;;;6186133;23;20345;-73
2022/01/30 02:56:06;;;;;;;44.00;8.02;;;6.50;99.90;;;;;;6187132;23;20010;-73
2022/01/30 02:58:32;;;;;;;26.02;5.60;;;6.50;99.90;;;;;;6186933;23;20460;-74
2022/01/30 03:00:58;;;;;;;26.35;5.25;;;6.40;99.90;;;;;;6186017;23;20487;-72
2022/01/30 03:03:23;;;;;;;30.48;5.80;;;6.40;99.90;;;;;;6186955;23;20013;-73
2022/01/30 03:05:49;;;;;;;30.80;5.32;;;6.40;99.90;;;;;;6186486;23;20326;-73
2022/01/30 03:08:15;;;;;;;24.02;3.85;;;6.30;99.90;;;;;;6185954;23;20023;-73
2022/01/30 03:10:40;;;;;;;27.10;4.80;;;6.30;99.90;;;;;;6186567;23;20010;-73
2022/01/30 03:13:06;;;;;;;21.55;4.15;;;6.30;99.90;;;;;;6186523;23;20021;-73
2022/01/30 03:15:32;;;;;;;28.80;5.15;;;6.30;99.90;;;;;;6185551;23;20013;-74
2022/01/30 03:17:58;;;;;;;42.22;7.25;;;6.20;99.90;;;;;;6186443;23;20097;-73
2022/01/30 03:20:24;;;;;;;25.02;5.90;;;6.30;99.90;;;;;;6160159;23;20511;-73
2022/01/30 03:22:49;;;;;;;24.77;5.60;;;6.20;99.90;;;;;;6185400;23;20009;-73
2022/01/30 03:25:15;;;;;;;25.42;6.63;;;6.50;99.90;;;;;;6186932;23;20021;-73
2022/01/30 03:27:44;;;;;;;34.90;5.65;;;6.20;99.90;;;;;;6185540;23;20108;-73
2022/01/30 03:30:15;;;;;;;34.70;5.50;;;6.20;99.90;;;;;;6160125;23;20028;-74
2022/01/30 03:32:41;;;;;;;28.65;6.10;;;6.20;99.90;;;;;;6160099;23;20024;-72
2022/01/30 03:35:07;;;;;;;36.13;6.55;;;6.30;99.90;;;;;;6185437;23;20021;-73
2022/01/30 03:37:32;;;;;;;44.45;6.47;;;6.40;99.90;;;;;;6186323;23;20071;-73
2022/01/30 03:39:58;;;;;;;36.90;7.00;;;6.40;99.90;;;;;;6159963;23;20053;-73
2022/01/30 03:42:24;;;;;;;35.53;8.23;;;6.40;99.90;;;;;;6185345;23;20068;-73
2022/01/30 03:44:50;;;;;;;29.80;5.75;;;6.40;99.90;;;;;;6186391;23;20014;-73
2022/01/30 03:47:15;;;;;;;41.95;8.32;;;6.50;99.90;;;;;;6186169;23;20337;-73
2022/01/30 03:49:41;;;;;;;27.30;6.65;;;6.50;99.90;;;;;;6158815;23;20017;-74
2022/01/30 03:52:08;;;;;;;39.42;6.97;;;6.50;99.90;;;;;;6186399;23;20024;-72
2022/01/30 03:54:35;;;;;;;31.27;6.13;;;6.50;99.90;;;;;;6186530;23;20021;-74
2022/01/30 03:57:01;;;;;;;31.83;7.32;;;6.50;99.90;;;;;;6158823;23;20074;-73
2022/01/30 03:59:27;;;;;;;42.75;9.10;;;6.60;99.90;;;;;;6159851;23;20082;-74
2022/01/30 04:01:53;;;;;;;40.78;8.60;;;6.60;99.90;;;;;;6186390;23;20083;-73
2022/01/30 04:04:18;;;;;;;40.22;6.93;;;6.60;99.90;;;;;;6185086;23;20053;-73
2022/01/30 04:06:44;;;;;;;41.67;7.03;;;6.60;99.90;;;;;;6186304;23;20036;-74
2022/01/30 04:09:10;;;;;;;41.13;7.53;;;6.60;99.90;;;;;;6186404;23;20021;-72
2022/01/30 04:11:36;;;;;;;37.88;7.00;;;6.60;99.90;;;;;;6184873;23;20097;-73
2022/01/30 04:14:02;;;;;;;33.60;7.57;;;6.60;99.90;;;;;;6185938;23;20072;-72
2022/01/30 04:16:28;;;;;;;38.70;6.45;;;6.60;99.90;;;;;;6159540;23;20380;-73
2022/01/30 04:18:54;;;;;;;33.15;6.20;;;6.60;99.90;;;;;;6185002;23;20065;-73
2022/01/30 04:21:20;;;;;;;51.63;6.93;;;6.60;99.90;;;;;;6185989;23;20088;-73
2022/01/30 04:23:45;;;;;;;36.25;6.63;;;6.50;99.90;;;;;;6159387;23;20400;-74
2022/01/30 04:26:11;;;;;;;36.53;6.60;;;6.60;99.90;;;;;;6185283;23;20045;-74
2022/01/30 04:28:37;;;;;;;41.35;6.72;;;6.50;99.90;;;;;;6185840;23;20315;-74
2022/01/30 04:31:03;;;;;;;41.47;6.78;;;6.50;99.90;;;;;;6158645;23;20021;-74
2022/01/30 04:33:29;;;;;;;37.60;6.72;;;6.50;99.90;;;;;;6186109;23;20461;-73
2022/01/30 04:35:56;;;;;;;46.70;7.85;;;6.50;99.90;;;;;;6159492;23;20074;-74
2022/01/30 04:38:30;;;;;;;40.38;6.63;;;6.40;99.90;;;;;;6185023;23;20453;-73
2022/01/30 05:00:36;;;;;;;;;;;6.30;99.90;;;;;;6141117;23;20028;-73
2022/01/30 05:05:56;;;;;;;42.10;7.53;;;6.50;99.90;;;;;;6161310;23;20104;-73
2022/01/30 05:08:23;;;;;;;43.55;8.32;;;6.40;99.90;;;;;;6160522;23;20048;-74
2022/01/30 05:10:49;;;;;;;44.72;8.57;;;6.50;99.90;;;;;;6187685;23;20036;-73
2022/01/30 05:13:19;;;;;;;56.95;10.73;;;6.40;99.90;;;;;;6160447;23;20322;-73
2022/01/30 05:15:45;;;;;;;39.00;7.93;;;6.50;99.90;;;;;;6187753;23;20017;-73
2022/01/30 05:18:20;;;;;;;47.55;8.65;;;6.50;99.90;;;;;;6187907;23;20027;-73
2022/01/30 05:20:46;;;;;;;40.25;7.88;;;6.50;99.90;;;;;;6186955;23;20009;-73
2022/01/30 05:23:12;;;;;;;37.75;8.15;;;6.50;99.90;;;;;;6161254;23;20024;-74
2022/01/30 05:25:39;;;;;;;53.63;8.25;;;6.50;99.90;;;;;;6187482;23;20468;-74
2022/01/30 05:28:06;;;;;;;42.55;9.38;;;6.40;99.90;;;;;;6160306;23;20032;-74
2022/01/30 05:30:36;;;;;;;48.97;8.35;;;6.40;99.90;;;;;;6187536;23;20009;-74
2022/01/30 05:33:02;;;;;;;59.25;8.48;;;6.40;99.90;;;;;;6161095;23;20509;-74
2022/01/30 05:35:28;;;;;;;57.83;10.00;;;6.30;99.90;;;;;;6186421;23;20453;-74
2022/01/30 05:37:57;;;;;;;42.92;7.28;;;6.30;99.90;;;;;;6160765;23;20021;-74
2022/01/30 05:40:24;;;;;;;45.95;7.78;;;6.30;99.90;;;;;;6161129;23;20071;-74
2022/01/30 05:42:51;;;;;;;43.75;7.20;;;6.20;99.90;;;;;;6186446;23;20021;-74
2022/01/30 05:48:00;;;;;;;45.63;8.43;;;6.20;99.90;;;;;;6161070;23;20327;-73
2022/01/30 05:50:26;;;;;;;40.63;8.13;;;6.20;99.90;;;;;;6186767;23;20013;-73
2022/01/30 05:52:52;;;;;;;45.33;8.55;;;6.10;99.90;;;;;;6160631;23;20619;-73
2022/01/30 05:55:18;;;;;;;51.72;9.18;;;6.20;99.90;;;;;;6159907;23;20052;-74
2022/01/30 05:57:43;;;;;;;41.42;7.63;;;6.10;99.90;;;;;;6187578;23;20103;-74
2022/01/30 06:00:13;;;;;;;43.50;7.80;;;6.10;99.90;;;;;;6187278;23;20049;-73
2022/01/30 06:02:41;;;;;;;38.60;7.53;;;6.10;99.90;;;;;;6160065;23;20492;-74
2022/01/30 06:05:08;;;;;;;39.10;8.27;;;6.10;99.90;;;;;;6187524;23;20044;-73
2022/01/30 06:07:35;;;;;;;39.53;7.68;;;6.20;99.90;;;;;;6187074;23;20051;-73
2022/01/30 06:10:00;;;;;;;46.63;7.97;;;6.20;99.90;;;;;;6185830;23;20100;-74
2022/01/30 06:12:26;;;;;;;34.30;7.88;;;6.20;99.90;;;;;;6185758;23;20053;-74
2022/01/30 06:14:52;;;;;;;37.78;6.55;;;6.30;99.90;;;;;;6185770;23;20083;-74
2022/01/30 06:17:18;;;;;;;51.97;7.72;;;6.30;99.90;;;;;;6184417;23;20414;-74
2022/01/30 06:19:43;;;;;;;38.65;7.65;;;6.30;99.90;;;;;;6185578;23;20016;-74
2022/01/30 06:22:09;;;;;;;35.15;6.95;;;6.30;99.90;;;;;;6158960;23;20024;-74
2022/01/30 06:24:39;;;;;;;43.40;9.02;;;6.30;99.90;;;;;;6157885;23;20401;-74
2022/01/30 06:27:04;;;;;;;34.30;6.85;;;6.30;99.90;;;;;;6185256;23;20100;-73
2022/01/30 06:29:30;;;;;;;51.60;9.32;;;6.30;99.90;;;;;;6159065;23;20048;-74
2022/01/30 06:31:56;;;;;;;42.72;9.50;;;6.30;99.90;;;;;;6184676;23;20020;-73
2022/01/30 06:34:22;;;;;;;34.38;7.45;;;6.20;99.90;;;;;;6185704;23;20009;-74
2022/01/30 06:36:48;;;;;;;26.85;4.43;;;6.30;99.90;;;;;;6158783;23;20461;-73
2022/01/30 06:39:14;;;;;;;42.15;8.23;;;6.20;99.90;;;;;;6184662;23;20020;-73
2022/01/30 06:41:39;;;;;;;33.47;7.45;;;6.30;99.90;;;;;;6158922;23;20024;-74
2022/01/30 06:44:07;;;;;;;38.25;8.65;;;6.30;99.90;;;;;;6185370;23;20013;-74
2022/01/30 06:46:33;;;;;;;38.83;7.43;;;6.30;99.90;;;;;;6184294;23;20021;-73
2022/01/30 06:48:58;;;;;;;38.33;7.05;;;6.30;99.90;;;;;;6159002;23;20077;-74
2022/01/30 06:51:24;;;;;;;31.60;7.18;;;6.40;99.90;;;;;;6185517;23;20013;-73
2022/01/30 06:53:50;;;;;;;44.13;9.00;;;6.40;99.90;;;;;;6184591;23;20017;-74
2022/01/30 06:56:15;;;;;;;47.00;9.55;;;6.40;99.90;;;;;;6158931;23;20349;-74
2022/01/30 06:58:41;;;;;;;45.17;10.20;;;6.40;99.90;;;;;;6157877;23;20092;-74
2022/01/30 07:01:07;;;;;;;46.45;8.98;;;6.40;99.90;;;;;;6185233;23;20020;-73
2022/01/30 07:03:32;;;;;;;46.15;9.57;;;6.40;99.90;;;;;;6185127;23;20476;-73
2022/01/30 07:05:58;;;;;;;61.10;9.95;;;6.40;99.90;;;;;;6184534;23;20036;-74
2022/01/30 07:08:24;;;;;;;48.50;7.57;;;6.40;99.90;;;;;;6158804;23;20017;-74
2022/01/30 07:10:49;;;;;;;46.97;8.43;;;6.40;99.90;;;;;;6137756;23;1127078;-74
2022/01/30 07:13:15;;;;;;;46.47;8.82;;;6.40;99.90;;;;;;6185927;23;20100;-74
2022/01/30 07:15:41;;;;;;;52.67;9.45;;;6.40;99.90;;;;;;6186454;23;20090;-74
2022/01/30 07:18:07;;;;;;;46.08;9.35;;;6.40;99.90;;;;;;6186450;23;20377;-73
2022/01/30 07:20:33;;;;;;;51.38;9.73;;;6.30;99.90;;;;;;6185485;23;20452;-74
2022/01/30 07:22:59;;;;;;;43.95;8.82;;;6.30;99.90;;;;;;6186664;23;20385;-74
2022/01/30 07:25:25;;;;;;;47.75;8.63;;;6.30;99.90;;;;;;6186404;23;20017;-74
2022/01/30 07:27:51;;;;;;;41.83;8.07;;;6.30;99.90;;;;;;6185474;23;20017;-74
2022/01/30 07:30:16;;;;;;;41.42;8.38;;;6.30;99.90;;;;;;6186265;23;20027;-74
2022/01/30 07:32:42;;;;;;;48.03;9.25;;;6.30;99.90;;;;;;6186312;23;20079;-74
2022/01/30 07:35:08;;;;;;;38.60;7.90;;;6.30;99.90;;;;;;6185228;23;20009;-74
2022/01/30 07:37:35;;;;;;;45.33;9.25;;;6.30;99.90;;;;;;6186375;23;20052;-74
2022/01/30 07:40:02;;;;;;;42.78;7.65;;;6.30;99.90;;;;;;6186660;23;20310;-73
2022/01/30 07:42:28;;;;;;;48.75;9.02;;;6.30;99.90;;;;;;6185677;23;20017;-74
2022/01/30 07:44:54;;;;;;;43.60;10.25;;;6.20;99.90;;;;;;6186111;23;20508;-74
2022/01/30 07:47:22;;;;;;;43.83;7.88;;;6.40;99.90;;;;;;6186193;23;20017;-73
2022/01/30 07:49:51;;;;;;;32.25;6.55;;;6.20;99.90;;;;;;6185630;23;20056;-74
2022/01/30 07:52:19;;;;;;;45.55;7.80;;;6.20;99.90;;;;;;6185930;23;20013;-73
2022/01/30 07:54:45;;;;;;;49.75;8.20;;;6.20;99.90;;;;;;6186379;23;20132;-73
2022/01/30 07:57:10;;;;;;;42.60;8.73;;;6.20;99.90;;;;;;6158855;23;20411;-73
2022/01/30 07:59:36;;;;;;;45.15;7.95;;;6.20;99.90;;;;;;6159784;23;20077;-73
2022/01/30 08:02:02;;;;;;;30.42;4.85;;;6.20;99.90;;;;;;6158526;23;20528;-73
2022/01/30 08:04:28;;;;;;;22.95;5.03;;;6.10;99.90;;;;;;6159757;23;20017;-73
2022/01/30 08:06:55;;;;;;;34.08;7.00;;;6.10;99.90;;;;;;6185862;23;20053;-73
2022/01/30 08:09:20;;;;;;;31.08;6.82;;;6.20;99.90;;;;;;6185406;23;20063;-74
2022/01/30 08:11:46;;;;;;;33.53;6.28;;;6.00;99.90;;;;;;6185846;23;20445;-73
2022/01/30 08:14:12;;;;;;;38.20;6.47;;;6.00;99.90;;;;;;6159703;23;20025;-73
2022/01/30 08:16:39;;;;;;;39.33;7.78;;;6.00;99.90;;;;;;6158613;23;20024;-73
2022/01/30 08:19:05;;;;;;;44.25;9.73;;;6.10;99.90;;;;;;6160072;23;20017;-73
2022/01/30 08:21:31;;;;;;;64.90;10.02;;;6.00;99.90;;;;;;6185918;23;20056;-73
2022/01/30 08:23:57;;;;;;;44.88;8.23;;;6.00;99.90;;;;;;6185302;23;20041;-73
2022/01/30 08:26:23;;;;;;;42.75;7.50;;;6.00;99.90;;;;;;6186257;23;20021;-73
2022/01/30 08:28:51;;;;;;;38.75;9.00;;;6.00;99.90;;;;;;6159626;23;20040;-74
2022/01/30 08:31:17;;;;;;;38.70;6.88;;;6.00;99.90;;;;;;6185221;23;20342;-73
2022/01/30 08:33:43;;;;;;;51.58;9.63;;;6.00;99.90;;;;;;6186244;23;20016;-73
2022/01/30 08:36:08;;;;;;;44.28;8.65;;;6.00;99.90;;;;;;6186114;23;20390;-73
2022/01/30 08:38:34;;;;;;;55.38;11.88;;;6.10;99.90;;;;;;6185375;23;20440;-73
2022/01/30 08:41:00;;;;;;;35.42;7.55;;;6.10;99.90;;;;;;6186216;23;20018;-73
2022/01/30 08:43:26;;;;;;;41.83;9.02;;;6.10;99.90;;;;;;6159498;23;20023;-74
2022/01/30 08:45:52;;;;;;;42.30;7.50;;;6.20;99.90;;;;;;6158263;23;20449;-73
2022/01/30 08:48:19;;;;;;;40.58;7.43;;;6.20;99.90;;;;;;6185821;23;20020;-74
2022/01/30 08:50:45;;;;;;;40.88;7.75;;;6.20;99.90;;;;;;6185662;23;20009;-73
2022/01/30 08:53:11;;;;;;;47.38;8.60;;;6.20;99.90;;;;;;6185047;23;20021;-73
2022/01/30 08:55:37;;;;;;;31.38;7.13;;;6.30;99.90;;;;;;6186117;23;20012;-73
2022/01/30 08:58:07;;;;;;;47.55;8.48;;;6.20;99.90;;;;;;6185960;23;20021;-73
2022/01/30 09:00:37;;;;;;;42.47;8.15;;;6.10;99.90;;;;;;6186128;23;20017;-74
2022/01/30 09:03:05;;;;;;;41.33;8.38;;;6.10;99.90;;;;;;6186031;23;20087;-73
2022/01/30 09:05:32;;;;;;;46.13;7.80;;;6.10;99.90;;;;;;6185123;23;20052;-73
2022/01/30 09:07:58;;;;;;;43.75;8.52;;;6.10;99.90;;;;;;6185586;23;20021;-73
2022/01/30 09:10:24;;;;;;;47.63;8.48;;;6.10;99.90;;;;;;6185482;23;20020;-73
2022/01/30 09:12:50;;;;;;;43.97;9.32;;;6.20;99.90;;;;;;6185057;23;20025;-73
2022/01/30 09:15:17;;;;;;;50.47;9.27;;;6.20;99.90;;;;;;6159203;23;20097;-74
2022/01/30 09:17:43;;;;;;;47.95;7.60;;;6.20;99.90;;;;;;6185596;23;20453;-73
2022/01/30 09:20:10;;;;;;;44.67;9.80;;;6.20;99.90;;;;;;6158156;23;20021;-73
2022/01/30 09:22:37;;;;;;;40.83;8.68;;;6.20;99.90;;;;;;6185833;23;20100;-75
2022/01/30 09:25:04;;;;;;;46.03;8.27;;;6.30;99.90;;;;;;6185669;23;20029;-75
2022/01/30 09:27:30;;;;;;;39.83;8.57;;;6.30;99.90;;;;;;6158339;23;20021;-76
2022/01/30 09:29:56;;;;;;;41.00;7.05;;;6.40;99.90;;;;;;6159295;23;20032;-74
2022/01/30 09:32:22;;;;;;;46.05;8.73;;;6.50;99.90;;;;;;6186073;23;20025;-74
2022/01/30 09:34:48;;;;;;;39.38;8.38;;;6.50;99.90;;;;;;6184566;23;20017;-73
2022/01/30 09:37:14;;;;;;;47.42;8.32;;;6.60;99.90;;;;;;6185762;23;20023;-73
2022/01/30 09:39:40;;;;;;;41.42;7.28;;;6.60;99.90;;;;;;6185852;23;20096;-74
2022/01/30 09:42:06;;;;;;;40.78;7.20;;;6.70;99.90;;;;;;6185832;23;20040;-73
2022/01/30 09:44:39;;;;;;;54.88;7.45;;;6.70;99.90;;;;;;6187446;23;20028;-73
2022/01/30 09:47:17;;;;;;;43.72;8.27;;;6.70;99.90;;;;;;6161045;23;20690;-73
2022/01/30 09:49:50;;;;;;;30.58;6.32;;;6.80;99.90;;;;;;6186735;23;20021;-73
2022/01/30 09:52:17;;;;;;;60.10;8.60;;;6.90;99.90;;;;;;6187571;23;20033;-73
2022/01/30 09:54:44;;;;;;;49.50;7.88;;;6.90;99.90;;;;;;6160193;23;20464;-73
2022/01/30 09:57:10;;;;;;;53.33;8.63;;;6.90;99.90;;;;;;6160839;23;20021;-74
2022/01/30 09:59:35;;;;;;;43.97;8.88;;;6.90;99.90;;;;;;6187494;23;20009;-73
2022/01/30 10:02:06;;;;;;;46.10;8.05;;;6.80;99.90;;;;;;6186537;23;20012;-73
2022/01/30 10:04:33;;;;;;;51.85;10.32;;;6.80;99.90;;;;;;6187129;23;20095;-73
2022/01/30 10:07:08;;;;;;;38.10;7.07;;;6.80;99.90;;;;;;6187047;23;20017;-73
2022/01/30 10:09:37;;;;;;;51.50;8.32;;;6.80;99.90;;;;;;6186690;23;20021;-73
2022/01/30 10:12:23;;;;;;;47.75;7.93;;;6.80;99.90;;;;;;6160911;23;20025;-73
2022/01/30 10:15:01;;;;;;;46.03;9.02;;;6.80;99.90;;;;;;6187599;23;20017;-73
2022/01/30 10:17:57;;;;;;;44.38;8.30;;;6.80;99.90;;;;;;6186026;23;20019;-73
2022/01/30 10:20:25;;;;;;;46.55;8.40;;;6.90;99.90;;;;;;6130037;23;20097;-74
2022/01/30 10:22:57;;;;;;;46.47;8.15;;;7.00;99.90;;;;;;6186264;23;20024;-73
2022/01/30 10:25:37;;;;;;;48.47;9.73;;;7.20;99.90;;;;;;6187364;23;20021;-74
2022/01/30 10:28:09;;;;;;;50.15;9.43;;;7.20;99.90;;;;;;6187023;23;20023;-73
2022/01/30 10:30:47;;;;;;;52.28;10.65;;;7.20;99.90;;;;;;6185954;23;20073;-73
2022/01/30 10:33:16;;;;;;;48.22;9.65;;;7.20;99.90;;;;;;6160584;23;20029;-74
2022/01/30 10:35:56;;;;;;;54.83;11.90;;;7.20;99.90;;;;;;6187146;23;20013;-74
2022/01/30 10:38:25;;;;;;;40.72;8.05;;;7.20;99.90;;;;;;6186167;23;20029;-74
2022/01/30 10:41:11;;;;;;;49.95;8.52;;;7.20;99.90;;;;;;6187875;23;20013;-74
2022/01/30 10:43:53;;;;;;;41.17;7.30;;;7.20;99.90;;;;;;6186665;23;20017;-72
2022/01/30 10:46:26;;;;;;;38.30;6.95;;;7.30;99.90;;;;;;6187083;23;20024;-73
2022/01/30 10:49:07;;;;;;;47.97;8.07;;;7.30;99.90;;;;;;6187388;23;20017;-73
2022/01/30 10:51:33;;;;;;;32.90;6.32;;;7.30;99.90;;;;;;6186137;23;20032;-74
2022/01/30 10:54:11;;;;;;;44.90;9.68;;;7.20;99.90;;;;;;6186484;23;20096;-74
2022/01/30 10:56:38;;;;;;;42.80;7.50;;;7.20;99.90;;;;;;6186981;23;20319;-74
2022/01/30 10:59:14;;;;;;;44.33;9.43;;;7.20;99.90;;;;;;6186035;23;20021;-73
2022/01/30 11:01:46;;;;;;;44.72;9.05;;;7.20;99.90;;;;;;6160401;23;20101;-74
2022/01/30 11:04:25;;;;;;;40.05;8.60;;;7.20;99.90;;;;;;6187034;23;20017;-73
2022/01/30 11:06:53;;;;;;;48.53;8.95;;;7.20;99.90;;;;;;6185609;23;20345;-74
2022/01/30 11:09:24;;;;;;;40.13;6.80;;;7.30;99.90;;;;;;6160135;23;20044;-74
2022/01/30 11:11:56;;;;;;;38.13;7.40;;;7.40;99.90;;;;;;6185609;23;20025;-74
2022/01/30 11:14:34;;;;;;;50.50;8.88;;;7.50;99.90;;;;;;6186567;23;20020;-73
2022/01/30 11:17:05;;;;;;;39.08;5.65;;;7.50;99.20;;;;;;6186478;23;20438;-74
2022/01/30 11:19:33;;;;;;;33.33;5.60;;;7.50;97.40;;;;;;6159349;23;20092;-74
2022/01/30 11:22:02;;;;;;;37.53;6.22;;;7.40;96.10;;;;;;6186401;23;20100;-74
2022/01/30 11:24:28;;;;;;;39.83;7.10;;;7.40;95.40;;;;;;6160144;23;20021;-74
2022/01/30 11:26:54;;;;;;;37.20;7.45;;;7.40;95.60;;;;;;6185523;23;20020;-74
2022/01/30 11:29:21;;;;;;;35.95;8.35;;;7.30;95.60;;;;;;6186763;23;20088;-73
2022/01/30 11:31:47;;;;;;;41.15;7.25;;;7.40;95.60;;;;;;6186395;23;20122;-73
2022/01/30 11:34:13;;;;;;;43.83;7.22;;;7.50;96.40;;;;;;6185669;23;20020;-74
2022/01/30 11:36:45;;;;;;;28.48;5.65;;;7.50;95.80;;;;;;6186623;23;20092;-74
2022/01/30 11:39:20;;;;;;;43.40;6.70;;;7.50;95.00;;;;;;6186650;23;20064;-73
2022/01/30 11:42:12;;;;;;;38.78;7.40;;;7.60;94.10;;;;;;6159029;23;20049;-73
2022/01/30 11:44:43;;;;;;;38.58;7.22;;;7.70;95.00;;;;;;6160054;23;20021;-74
2022/01/30 11:47:09;;;;;;;37.63;6.70;;;7.70;95.40;;;;;;6159002;23;20028;-74
2022/01/30 11:49:52;;;;;;;39.05;6.50;;;7.80;94.70;;;;;;6159789;23;20017;-74
2022/01/30 11:52:19;;;;;;;47.35;8.07;;;7.70;94.70;;;;;;6186472;23;20369;-73
2022/01/30 11:54:51;;;;;;;36.63;6.72;;;7.70;94.70;;;;;;6158940;23;20021;-73
2022/01/30 11:57:22;;;;;;;35.55;6.43;;;7.60;94.50;;;;;;6186462;23;20092;-73
2022/01/30 11:59:53;;;;;;;40.10;7.57;;;7.60;94.80;;;;;;6185990;23;20029;-73
2022/01/30 12:02:27;;;;;;;45.17;8.20;;;7.60;95.20;;;;;;6185177;23;20464;-73
2022/01/30 12:04:58;;;;;;;34.15;6.05;;;7.70;94.10;;;;;;6186243;23;20056;-73
2022/01/30 12:07:41;;;;;;;33.13;6.82;;;7.70;93.90;;;;;;6186000;23;20434;-73
2022/01/30 12:10:16;;;;;;;29.58;6.22;;;7.70;93.40;;;;;;6185483;23;20115;-74
2022/01/30 12:12:50;;;;;;;38.65;7.45;;;7.70;94.00;;;;;;6186009;23;20449;-73
2022/01/30 12:15:42;;;;;;;43.05;8.90;;;7.70;94.90;;;;;;6185018;23;20544;-73
2022/01/30 12:18:08;;;;;;;41.83;7.28;;;7.60;96.00;;;;;;6186233;23;20028;-73
2022/01/30 12:20:59;;;;;;;37.83;7.95;;;7.60;96.80;;;;;;6159715;23;20051;-73
2022/01/30 12:23:30;;;;;;;39.80;6.80;;;7.60;95.70;;;;;;6158940;23;20345;-73
2022/01/30 12:26:05;;;;;;;43.53;9.77;;;7.60;96.30;;;;;;6186336;23;20338;-73
2022/01/30 12:28:53;;;;;;;39.72;8.80;;;7.60;96.50;;;;;;6161030;23;20025;-73
2022/01/30 12:31:30;;;;;;;35.30;7.30;;;7.60;97.00;;;;;;6184974;23;20021;-74
2022/01/30 12:34:10;;;;;;;39.75;6.60;;;7.50;97.60;;;;;;6186247;23;20013;-73
2022/01/30 12:36:39;;;;;;;32.45;5.40;;;7.50;97.00;;;;;;6185018;23;20021;-73
2022/01/30 12:39:09;;;;;;;49.47;7.63;;;7.50;97.80;;;;;;6185732;23;20017;-73
2022/01/30 12:41:36;;;;;;;47.85;7.68;;;7.50;98.00;;;;;;6186219;23;20017;-74
2022/01/30 12:44:06;;;;;;;35.95;5.70;;;7.50;98.00;;;;;;6158549;23;20029;-74
2022/01/30 12:46:46;;;;;;;36.28;7.25;;;7.50;97.40;;;;;;6159519;23;20048;-74
2022/01/30 12:49:12;;;;;;;33.40;5.68;;;7.40;97.10;;;;;;6186228;23;20339;-73
2022/01/30 12:51:41;;;;;;;37.10;7.53;;;7.30;96.60;;;;;;6184520;23;20028;-73
2022/01/30 12:54:08;;;;;;;35.10;6.45;;;7.20;96.80;;;;;;6159460;23;20032;-73
2022/01/30 12:56:36;;;;;;;41.30;7.05;;;7.10;96.60;;;;;;6186124;23;20017;-74
2022/01/30 12:59:07;;;;;;;26.67;5.70;;;7.10;96.30;;;;;;6184827;23;20442;-73
2022/01/30 13:01:38;;;;;;;40.28;8.93;;;7.00;95.40;;;;;;6185682;23;20319;-73
2022/01/30 13:04:10;;;;;;;42.45;6.45;;;6.90;95.10;;;;;;6186130;23;20105;-74
2022/01/30 13:06:48;;;;;;;31.52;5.90;;;6.90;95.50;;;;;;6158297;23;20430;-73
2022/01/30 13:09:23;;;;;;;31.92;6.40;;;6.90;94.50;;;;;;6185648;23;20465;-73
2022/01/30 13:11:52;;;;;;;34.50;8.13;;;6.90;94.50;;;;;;6184564;23;20017;-74
2022/01/30 13:14:19;;;;;;;45.63;7.22;;;7.00;94.90;;;;;;6159365;23;20440;-74
2022/01/30 13:16:50;;;;;;;37.00;6.72;;;7.10;95.10;;;;;;6185971;23;20084;-73
2022/01/30 13:19:42;;;;;;;42.08;6.70;;;7.30;93.60;;;;;;6186668;23;20021;-73
2022/01/30 13:22:11;;;;;;;46.70;6.22;;;7.40;92.90;;;;;;6187870;23;20014;-74
2022/01/30 13:24:38;;;;;;;33.92;5.43;;;7.40;93.50;;;;;;6187531;23;20516;-74
2022/01/30 13:27:08;;;;;;;35.60;7.00;;;7.50;93.00;;;;;;6186966;23;20017;-73
2022/01/30 13:29:36;;;;;;;32.47;6.95;;;7.60;93.20;;;;;;6187893;23;20016;-74
2022/01/30 13:32:08;;;;;;;32.60;6.70;;;7.70;93.40;;;;;;6187838;23;20021;-74
2022/01/30 13:34:34;;;;;;;36.22;7.43;;;7.80;93.60;;;;;;6160270;23;20077;-74
2022/01/30 13:37:08;;;;;;;31.60;6.43;;;7.80;93.50;;;;;;6187583;23;20036;-73
2022/01/30 13:39:41;;;;;;;35.22;6.75;;;7.80;93.90;;;;;;6186471;23;20032;-73
2022/01/30 13:45:07;;;;;;;32.10;5.32;;;7.80;94.70;;;;;;6161059;23;20025;-74
2022/01/30 13:47:34;;;;;;;38.53;7.20;;;7.90;95.20;;;;;;6186819;23;20151;-74
2022/01/30 13:50:00;;;;;;;41.08;7.35;;;7.90;94.80;;;;;;6187666;23;20323;-73